Time;durP1;ratioP1;P1;durP2;ratioP2;P2;SDS_P1;SDS_P2;PMS_P1;PMS_P2;Temp;Humidity;BMP_temperature;BMP_pressure;BME280_temperature;BME280_humidity;BME280_pressure;Samples;Min_cycle;Max_cycle;Signal;HPM_P1;HPM_P2
2024/01/27 00:00:37;;;;;;;;;32.60;31.40;;;;;6.48;47.00;99860.47;4853760;29;8877;-79
2024/01/27 00:03:26;;;;;;;;;27.00;23.20;;;;;6.52;47.99;99875.25;4859025;29;8912;-81
2024/01/27 00:05:55;;;;;;;;;28.80;24.60;;;;;6.49;48.18;99874.38;4839934;29;8880;-80
2024/01/27 00:08:24;;;;;;;;;27.80;26.80;;;;;6.72;47.57;99890.09;4855328;29;8883;-79
2024/01/27 00:10:53;;;;;;;;;31.40;30.00;;;;;6.79;47.76;99883.09;4854923;29;8891;-78
2024/01/27 00:13:22;;;;;;;;;28.80;27.20;;;;;6.87;47.88;99876.13;4838199;29;8991;-79
2024/01/27 00:15:54;;;;;;;;;35.40;33.20;;;;;6.89;47.80;99871.81;4822918;29;9143;-80
2024/01/27 00:18:23;;;;;;;;;45.75;38.25;;;;;6.97;47.17;99866.59;4826123;29;8995;-78
2024/01/27 00:20:52;;;;;;;;;40.40;37.40;;;;;6.88;47.96;99870.03;4844849;29;8907;-80
2024/01/27 00:23:21;;;;;;;;;44.80;40.20;;;;;6.84;47.84;99874.41;4820412;29;8963;-79
2024/01/27 00:25:50;;;;;;;;;43.75;37.50;;;;;6.79;48.02;99875.28;4820770;29;8899;-81
2024/01/27 00:28:19;;;;;;;;;53.00;42.80;;;;;6.78;48.40;99868.31;4832226;29;8993;-81
2024/01/27 00:30:48;;;;;;;;;38.75;37.50;;;;;6.86;48.32;99870.03;4856867;29;8894;-79
2024/01/27 00:33:18;;;;;;;;;44.20;37.20;;;;;6.71;48.96;99864.81;4856415;29;9003;-79
2024/01/27 00:35:47;;;;;;;;;35.40;32.40;;;;;6.98;48.38;99850.88;4856275;29;8894;-78
2024/01/27 00:38:16;;;;;;;;;33.00;31.60;;;;;7.08;48.06;99850.03;4841684;29;8881;-79
2024/01/27 00:40:45;;;;;;;;;36.60;31.80;;;;;7.16;48.21;99854.38;4838373;29;8911;-79
2024/01/27 00:43:14;;;;;;;;;36.40;33.60;;;;;6.97;48.27;99861.38;4808004;29;8880;-79
2024/01/27 00:45:43;;;;;;;;;34.60;32.80;;;;;6.69;49.21;99858.72;4858196;29;8993;-78
2024/01/27 00:48:12;;;;;;;;;30.00;29.60;;;;;6.29;50.12;99856.97;4860024;29;9753;-80
2024/01/27 00:50:42;;;;;;;;;30.00;28.40;;;;;6.58;49.49;99855.25;4808256;29;9726;-80
2024/01/27 00:53:11;;;;;;;;;37.00;35.00;;;;;6.74;48.89;99846.53;4838610;29;8899;-78
2024/01/27 00:55:40;;;;;;;;;42.50;37.00;;;;;6.93;49.11;99846.53;4839086;29;8891;-79
2024/01/27 00:58:09;;;;;;;;;42.25;37.75;;;;;6.88;48.82;99849.13;4839038;29;8895;-79
2024/01/27 01:00:38;;;;;;;;;49.75;38.75;;;;;7.11;48.38;99840.44;4855160;29;8958;-79
2024/01/27 01:03:07;;;;;;;;;37.75;35.75;;;;;6.95;49.14;99830.00;4841240;29;8877;-80
2024/01/27 01:05:36;;;;;;;;;38.75;36.50;;;;;7.08;48.27;99830.84;4857860;29;8892;-79
2024/01/27 01:08:07;;;;;;;;;45.00;41.25;;;;;7.13;48.51;99820.38;4869687;29;8868;-80
2024/01/27 01:10:36;;;;;;;;;47.60;39.80;;;;;6.77;49.36;99830.00;4845992;29;8868;-80
2024/01/27 01:13:05;;;;;;;;;43.20;37.60;;;;;6.67;49.40;99814.31;4810285;29;8876;-78
2024/01/27 01:15:34;;;;;;;;;33.00;31.00;;;;;6.20;51.11;99819.53;4855169;29;8887;-78
2024/01/27 01:18:04;;;;;;;;;39.00;34.80;;;;;6.53;50.11;99821.31;4851140;29;8893;-79
2024/01/27 01:20:33;;;;;;;;;40.40;35.00;;;;;6.50;50.92;99824.78;4821781;29;8901;-80
2024/01/27 01:23:02;;;;;;;;;38.80;31.00;;;;;6.45;50.72;99825.63;4822339;29;8955;-80
2024/01/27 01:25:32;;;;;;;;;32.80;31.20;;;;;6.70;49.73;99837.84;4840548;29;8915;-78
2024/01/27 01:28:03;;;;;;;;;40.00;34.80;;;;;6.54;50.17;99832.63;4839454;29;8891;-79
2024/01/27 01:30:32;;;;;;;;;37.20;27.20;;;;;6.73;50.67;99846.53;4854445;29;8895;-79
2024/01/27 01:33:01;;;;;;;;;28.40;26.60;;;;;6.97;49.81;99830.88;4849650;29;8872;-80
2024/01/27 01:35:30;;;;;;;;;37.60;32.80;;;;;6.94;50.27;99824.78;4856288;29;8885;-77
2024/01/27 01:37:59;;;;;;;;;38.60;36.60;;;;;7.04;50.26;99821.25;4856394;29;9713;-78
2024/01/27 01:40:28;;;;;;;;;46.20;39.20;;;;;7.08;50.04;99821.25;4838678;29;8899;-78
2024/01/27 01:42:59;;;;;;;;;46.00;39.60;;;;;7.14;50.36;99825.59;4824659;29;8861;-77
2024/01/27 01:45:28;;;;;;;;;39.20;36.20;;;;;7.24;49.47;99834.28;4856320;29;9031;-78
2024/01/27 01:47:57;;;;;;;;;34.40;33.00;;;;;7.28;49.59;99828.19;4835944;29;9018;-78
2024/01/27 01:50:26;;;;;;;;;36.40;32.40;;;;;7.34;49.79;99829.91;4836381;29;8885;-80
2024/01/27 01:52:56;;;;;;;;;30.80;29.60;;;;;7.39;49.33;99822.91;4836440;29;8877;-78
2024/01/27 01:55:25;;;;;;;;;35.40;30.60;;;;;7.11;49.21;99824.75;4806695;29;8895;-78
2024/01/27 01:57:54;;;;;;;;;25.60;25.60;;;;;7.15;49.34;99826.47;4806583;29;8883;-79
2024/01/27 02:00:24;;;;;;;;;30.80;29.40;;;;;7.31;48.57;99822.09;4828956;29;8891;-78
2024/01/27 02:02:54;;;;;;;;;29.40;27.20;;;;;7.37;49.13;99836.00;4829686;29;8889;-79
2024/01/27 02:05:23;;;;;;;;;32.60;29.40;;;;;7.39;48.90;99834.25;4791726;29;9007;-79
2024/01/27 02:07:56;;;;;;;;;30.60;26.60;;;;;7.21;48.66;99844.75;4821451;29;8912;-80
2024/01/27 02:10:25;;;;;;;;;38.40;30.20;;;;;6.31;51.62;99899.59;4810775;29;8905;-79
2024/01/27 02:12:54;;;;;;;;;33.80;33.40;;;;;5.18;56.73;99953.81;4818043;29;8979;-82
2024/01/27 02:15:24;;;;;;;;;36.00;30.80;;;;;4.17;61.07;100006.63;4802751;29;9057;-79
2024/01/27 02:17:53;;;;;;;;;51.50;43.00;;;;;4.30;61.42;100063.16;4799553;29;8873;-80
2024/01/27 02:20:22;;;;;;;;;51.25;43.25;;;;;3.39;65.06;100056.59;4799853;29;8912;-79
2024/01/27 02:22:51;;;;;;;;;47.00;42.75;;;;;2.93;67.01;100053.19;4784771;29;9026;-80
2024/01/27 02:25:22;;;;;;;;;58.00;48.25;;;;;2.81;67.84;100033.06;4783372;29;8900;-78
2024/01/27 02:27:51;;;;;;;;;50.00;42.75;;;;;2.56;67.89;100036.03;4835747;29;8872;-79
2024/01/27 02:30:19;;;;;;;;;40.00;38.25;;;;;2.53;68.84;100043.78;4822143;29;8884;-80
2024/01/27 02:32:48;;;;;;;;;41.50;38.50;;;;;2.34;70.20;100029.56;4829718;29;9000;-81
2024/01/27 02:35:17;;;;;;;;;31.50;29.75;;;;;2.22;70.74;100036.25;4824424;29;8927;-80
2024/01/27 02:37:46;;;;;;;;;44.00;39.20;;;;;2.43;70.05;100032.34;4806396;29;8880;-79
2024/01/27 02:40:15;;;;;;;;;41.40;36.20;;;;;2.52;69.58;100027.31;4803869;29;8893;-81
2024/01/27 02:42:46;;;;;;;;;40.00;35.75;;;;;2.64;68.97;100018.00;4835560;29;9627;-79
2024/01/27 02:45:15;;;;;;;;;42.50;40.00;;;;;2.89;68.84;100029.75;4805380;29;9069;-79
2024/01/27 02:47:44;;;;;;;;;44.75;36.00;;;;;3.19;67.26;100022.47;4824891;29;8916;-80
2024/01/27 02:50:13;;;;;;;;;44.60;35.80;;;;;3.36;66.73;100017.56;4817582;29;9003;-80
2024/01/27 02:52:42;;;;;;;;;45.50;41.25;;;;;3.52;65.69;100017.81;4840061;29;8896;-78
2024/01/27 02:55:11;;;;;;;;;41.75;37.00;;;;;4.08;64.54;100012.56;4836503;29;8915;-79
2024/01/27 02:57:41;;;;;;;;;40.25;36.50;;;;;4.02;64.46;100016.78;4818403;29;8865;-79
2024/01/27 03:00:12;;;;;;;;;49.00;41.25;;;;;4.07;63.89;100026.41;4835983;29;8877;-79
2024/01/27 03:02:42;;;;;;;;;44.50;39.00;;;;;4.43;63.57;100024.25;4835830;29;8873;-83
2024/01/27 03:05:13;;;;;;;;;45.25;40.75;;;;;4.44;62.83;100024.28;4821101;29;9667;-78
2024/01/27 03:07:43;;;;;;;;;47.50;42.75;;;;;4.68;62.11;100009.81;4791154;29;8991;-81
2024/01/27 03:10:12;;;;;;;;;45.25;39.75;;;;;4.61;61.92;100013.19;4805674;29;9054;-80
2024/01/27 03:12:41;;;;;;;;;53.00;43.25;;;;;4.74;61.79;100028.09;4817941;29;9709;-80
2024/01/27 03:15:10;;;;;;;;;42.40;40.40;;;;;4.72;61.59;100025.47;4820628;29;8881;-80
2024/01/27 03:17:41;;;;;;;;;44.00;37.80;;;;;4.86;61.50;100029.94;4822182;29;8885;-80
2024/01/27 03:20:11;;;;;;;;;53.25;42.25;;;;;4.67;61.10;100032.34;4837812;29;8944;-80
2024/01/27 03:22:41;;;;;;;;;52.25;45.00;;;;;4.33;62.56;100016.34;4838090;29;8908;-78
2024/01/27 03:25:11;;;;;;;;;47.50;41.25;;;;;4.43;62.36;100012.09;4822094;29;8902;-78
2024/01/27 03:27:40;;;;;;;;;51.00;41.25;;;;;4.59;61.90;100035.75;4820349;29;8966;-79
2024/01/27 03:30:09;;;;;;;;;48.75;42.50;;;;;4.84;61.63;100034.25;4802493;29;8926;-80
2024/01/27 03:32:41;;;;;;;;;53.25;43.75;;;;;4.87;61.08;100039.50;4821847;29;8887;-80
2024/01/27 03:35:10;;;;;;;;;45.25;42.00;;;;;5.01;60.39;100053.53;4821132;29;8925;-80
2024/01/27 03:37:39;;;;;;;;;53.00;44.75;;;;;5.10;60.21;100057.97;4822683;29;8913;-79
2024/01/27 03:40:09;;;;;;;;;55.75;46.25;;;;;5.14;60.28;100049.31;4831075;29;8998;-80
2024/01/27 03:42:38;;;;;;;;;55.25;47.25;;;;;5.03;60.76;100056.16;4812724;29;8903;-79
2024/01/27 03:45:08;;;;;;;;;57.50;47.50;;;;;5.00;60.91;100056.13;4814311;29;9711;-79
2024/01/27 03:47:37;;;;;;;;;57.25;49.00;;;;;5.34;60.10;100041.72;4802813;29;8893;-79
2024/01/27 03:50:08;;;;;;;;;52.50;45.50;;;;;4.86;61.70;100049.03;4804299;29;9043;-78
2024/01/27 03:52:37;;;;;;;;;50.50;42.75;;;;;4.38;63.06;100054.59;4806084;29;8886;-81
2024/01/27 03:55:07;;;;;;;;;56.50;47.00;;;;;3.81;64.92;100056.38;4801936;29;8916;-79
2024/01/27 03:57:36;;;;;;;;;47.25;42.00;;;;;3.85;64.78;100068.59;4755508;29;9615;-80
2024/01/27 04:00:08;;;;;;;;;38.75;33.25;;;;;3.76;65.52;100072.78;4794807;29;8902;-79
2024/01/27 04:02:38;;;;;;;;;39.50;36.75;;;;;3.14;67.86;100101.19;4820662;29;8906;-80
2024/01/27 04:05:09;;;;;;;;;43.80;36.80;;;;;3.15;68.20;100080.44;4820693;29;9042;-79
2024/01/27 04:07:38;;;;;;;;;33.20;30.40;;;;;3.44;66.81;100089.63;4805398;29;8919;-79
2024/01/27 04:10:07;;;;;;;;;26.80;23.60;;;;;3.29;67.57;100085.84;4820410;29;8934;-80
2024/01/27 04:12:37;;;;;;;;;26.40;24.00;;;;;3.27;67.52;100094.50;4820707;29;8879;-81
2024/01/27 04:15:06;;;;;;;;;19.80;19.40;;;;;3.07;67.09;100108.00;4833127;29;8895;-80
2024/01/27 04:17:35;;;;;;;;;12.40;12.40;;;;;3.06;67.51;100116.63;4833465;29;8895;-78
2024/01/27 04:20:05;;;;;;;;;15.60;15.20;;;;;3.10;67.00;100110.63;4828788;29;8879;-78
2024/01/27 04:22:36;;;;;;;;;17.80;15.20;;;;;3.07;66.80;100121.00;4855587;29;8892;-77
2024/01/27 04:25:06;;;;;;;;;15.40;14.00;;;;;3.46;65.81;100117.38;4824940;29;9046;-79
2024/01/27 04:27:39;;;;;;;;;11.40;11.20;;;;;3.27;65.79;100123.94;4841815;29;8883;-79
2024/01/27 04:30:08;;;;;;;;;14.00;13.40;;;;;3.02;66.79;100124.34;4834877;29;8884;-80
2024/01/27 04:32:38;;;;;;;;;18.20;15.20;;;;;3.16;66.57;100134.13;4855301;29;8888;-80
2024/01/27 04:35:10;;;;;;;;;9.60;8.80;;;;;2.75;66.78;100141.09;4855059;29;9025;-79
2024/01/27 04:37:41;;;;;;;;;5.60;4.60;;;;;2.87;65.61;100130.97;4843922;29;8944;-80
2024/01/27 04:40:10;;;;;;;;;4.20;4.20;;;;;2.90;65.41;100140.53;4857731;29;9636;-80
2024/01/27 04:42:41;;;;;;;;;2.60;2.60;;;;;2.99;64.40;100126.00;4873234;29;8869;-80
2024/01/27 04:45:10;;;;;;;;;5.00;3.20;;;;;2.86;65.10;100133.53;4857333;29;8891;-78
2024/01/27 04:47:39;;;;;;;;;2.80;2.80;;;;;2.61;65.44;100167.66;4846874;29;8865;-79
2024/01/27 04:50:09;;;;;;;;;3.20;3.20;;;;;2.71;64.12;100155.75;4865480;29;8917;-80
2024/01/27 04:52:41;;;;;;;;;1.60;1.60;;;;;2.72;63.45;100167.00;4857477;29;9019;-78
2024/01/27 04:55:11;;;;;;;;;4.80;3.40;;;;;2.85;62.40;100162.97;4826587;29;8900;-79
2024/01/27 04:57:40;;;;;;;;;1.20;1.20;;;;;2.67;62.54;100208.44;4873664;29;8911;-79
2024/01/27 05:00:12;;;;;;;;;2.60;2.60;;;;;2.59;63.13;100197.88;4857546;29;8885;-79
2024/01/27 05:02:42;;;;;;;;;2.00;2.00;;;;;2.85;62.04;100184.59;4838576;29;8902;-79
2024/01/27 05:05:11;;;;;;;;;1.60;1.60;;;;;2.62;62.29;100181.53;4839240;29;9006;-79
2024/01/27 05:07:40;;;;;;;;;1.40;1.40;;;;;2.61;62.33;100196.19;4840215;29;9752;-79
2024/01/27 05:10:13;;;;;;;;;1.80;1.80;;;;;2.75;61.53;100182.63;4839211;29;8891;-77
2024/01/27 05:12:42;;;;;;;;;2.80;2.80;;;;;2.72;60.66;100187.78;4860718;29;9679;-78
2024/01/27 05:15:11;;;;;;;;;2.00;2.00;;;;;2.72;61.54;100198.16;4871865;29;8877;-79
2024/01/27 05:17:41;;;;;;;;;2.00;1.00;;;;;2.59;61.45;100210.88;4842571;29;8879;-79
2024/01/27 05:20:10;;;;;;;;;1.20;1.20;;;;;2.50;60.92;100246.13;4825019;29;9610;-79
2024/01/27 05:22:39;;;;;;;;;4.20;3.80;;;;;2.55;60.36;100241.91;4838981;29;8915;-79
2024/01/27 05:25:09;;;;;;;;;5.00;3.60;;;;;2.82;59.91;100223.47;4854140;29;8877;-78
2024/01/27 05:27:40;;;;;;;;;4.20;2.80;;;;;2.75;60.03;100225.06;4857409;29;8889;-81
2024/01/27 05:30:10;;;;;;;;;2.20;2.20;;;;;2.80;60.05;100231.22;4842391;29;9643;-82
2024/01/27 05:32:39;;;;;;;;;1.60;1.60;;;;;2.70;59.91;100231.00;4844153;29;9626;-80
2024/01/27 05:35:10;;;;;;;;;3.40;1.60;;;;;2.49;60.18;100255.63;4841083;29;8959;-79
2024/01/27 05:37:40;;;;;;;;;2.80;2.80;;;;;2.57;60.37;100248.00;4842967;29;8999;-78
2024/01/27 05:40:10;;;;;;;;;4.20;3.60;;;;;2.67;59.85;100243.91;4878100;29;8889;-79
2024/01/27 05:42:42;;;;;;;;;1.40;1.40;;;;;2.69;59.46;100250.88;4842514;29;8869;-78
2024/01/27 05:45:12;;;;;;;;;1.20;1.00;;;;;2.29;59.63;100275.03;4856941;29;8868;-80
2024/01/27 05:47:41;;;;;;;;;3.80;3.80;;;;;2.42;60.00;100275.34;4828001;29;8921;-79
2024/01/27 05:50:11;;;;;;;;;1.80;1.80;;;;;2.57;59.03;100272.25;4834283;29;8909;-79
2024/01/27 05:52:40;;;;;;;;;2.00;2.00;;;;;2.79;58.67;100272.75;4837190;29;9647;-81
2024/01/27 05:55:11;;;;;;;;;1.40;1.40;;;;;2.71;58.09;100264.78;4856797;29;8876;-79
2024/01/27 05:57:42;;;;;;;;;1.20;1.20;;;;;2.53;58.76;100282.53;4830959;29;8872;-80
2024/01/27 06:00:12;;;;;;;;;2.00;1.00;;;;;2.55;58.83;100291.22;4821913;29;9617;-79
2024/01/27 06:02:41;;;;;;;;;2.40;1.80;;;;;2.61;58.90;100291.38;4867311;29;8930;-78
2024/01/27 06:05:10;;;;;;;;;2.00;2.00;;;;;2.53;58.47;100313.69;4843752;29;8915;-78
2024/01/27 06:07:39;;;;;;;;;1.80;1.80;;;;;2.50;58.84;100326.56;4824457;29;8856;-77
2024/01/27 06:10:09;;;;;;;;;2.40;2.40;;;;;2.86;57.61;100310.97;4857899;29;8984;-79
2024/01/27 06:12:39;;;;;;;;;2.00;2.00;;;;;2.88;57.30;100327.50;4856443;29;8880;-79
2024/01/27 06:15:10;;;;;;;;;5.20;2.80;;;;;2.86;57.18;100329.16;4859044;29;9705;-79
2024/01/27 06:17:40;;;;;;;;;3.80;2.00;;;;;2.69;57.79;100330.47;4850805;29;9033;-78
2024/01/27 06:20:09;;;;;;;;;2.00;2.00;;;;;2.88;57.66;100355.16;4806215;29;8888;-81
2024/01/27 06:22:39;;;;;;;;;1.80;1.80;;;;;2.92;57.65;100344.88;4821337;29;9004;-80
2024/01/27 06:25:10;;;;;;;;;2.00;2.00;;;;;2.94;57.30;100357.88;4807638;29;8904;-82
2024/01/27 06:27:41;;;;;;;;;2.00;2.00;;;;;2.98;57.54;100371.00;4844264;29;8873;-79
2024/01/27 06:30:12;;;;;;;;;2.00;2.00;;;;;2.87;57.44;100351.69;4867181;29;8891;-78
2024/01/27 06:32:42;;;;;;;;;1.00;1.00;;;;;2.67;58.66;100387.53;4838666;29;8877;-79
2024/01/27 06:35:11;;;;;;;;;1.80;1.00;;;;;2.69;58.31;100392.78;4806531;29;8983;-80
2024/01/27 06:37:40;;;;;;;;;3.20;2.80;;;;;2.65;57.90;100378.84;4829203;29;8989;-78
2024/01/27 06:40:10;;;;;;;;;1.00;1.00;;;;;2.77;58.58;100373.97;4839737;29;8916;-80
2024/01/27 06:42:39;;;;;;;;;2.00;2.00;;;;;3.01;57.21;100370.19;4813542;29;8889;-79
2024/01/27 06:45:08;;;;;;;;;1.20;1.20;;;;;2.56;57.83;100391.59;4836983;29;8905;-81
2024/01/27 06:47:39;;;;;;;;;2.00;2.00;;;;;2.78;57.48;100383.50;4825983;29;9004;-80
2024/01/27 06:50:08;;;;;;;;;1.60;1.00;;;;;2.44;58.84;100399.94;4837721;29;8910;-81
2024/01/27 06:52:38;;;;;;;;;1.00;1.00;;;;;2.57;58.39;100406.34;4848664;29;8879;-80
2024/01/27 06:55:07;;;;;;;;;2.00;2.00;;;;;2.63;58.24;100413.41;4836157;29;8872;-80
2024/01/27 06:57:36;;;;;;;;;0.40;0.00;;;;;2.52;58.31;100455.50;4821648;29;8872;-77
2024/01/27 07:00:06;;;;;;;;;1.80;1.80;;;;;2.50;58.67;100414.78;4825868;29;8900;-78
2024/01/27 07:02:35;;;;;;;;;2.00;2.00;;;;;2.59;58.66;100426.28;4860232;29;8974;-79
2024/01/27 07:05:07;;;;;;;;;2.80;1.60;;;;;2.40;58.50;100430.13;4852296;29;8896;-81
2024/01/27 07:07:37;;;;;;;;;1.00;1.00;;;;;2.44;58.59;100425.91;4821199;29;8967;-80
2024/01/27 07:10:08;;;;;;;;;1.80;1.00;;;;;2.80;58.26;100431.13;4837841;29;8894;-79
2024/01/27 07:12:37;;;;;;;;;5.00;4.80;;;;;2.83;57.95;100432.97;4815029;29;8891;-82
2024/01/27 07:15:07;;;;;;;;;4.20;4.20;;;;;2.79;57.35;100429.41;4825918;29;8869;-81
2024/01/27 07:17:36;;;;;;;;;3.80;3.60;;;;;2.77;57.81;100428.50;4851327;29;8872;-80
2024/01/27 07:20:08;;;;;;;;;2.00;1.80;;;;;2.44;58.61;100454.44;4845019;29;9744;-79
2024/01/27 07:22:38;;;;;;;;;1.40;1.40;;;;;2.48;58.58;100447.63;4844237;29;8863;-80
2024/01/27 07:25:09;;;;;;;;;3.60;3.60;;;;;2.80;57.75;100451.03;4838827;29;9078;-81
2024/01/27 07:27:39;;;;;;;;;4.00;4.00;;;;;2.94;56.95;100456.56;4846869;29;8900;-78
2024/01/27 07:30:11;;;;;;;;;0.00;0.00;;;;;2.80;56.69;100471.81;4836352;29;8899;-79
2024/01/27 07:32:40;;;;;;;;;2.00;2.00;;;;;2.84;56.83;100470.19;4849170;29;9514;-80
2024/01/27 07:35:13;;;;;;;;;5.20;3.80;;;;;2.64;57.34;100472.25;4853118;29;8879;-81
2024/01/27 07:37:43;;;;;;;;;4.20;2.20;;;;;3.10;56.53;100460.44;4825079;29;8944;-81
2024/01/27 07:40:13;;;;;;;;;5.60;5.00;;;;;2.70;57.56;100480.22;4852664;29;10270;-80
2024/01/27 07:42:42;;;;;;;;;5.00;4.40;;;;;2.76;57.67;100481.25;4852842;29;8945;-80
2024/01/27 07:45:11;;;;;;;;;5.40;5.00;;;;;2.54;57.91;100474.63;4824363;29;8876;-80
2024/01/27 07:47:40;;;;;;;;;1.80;1.80;;;;;2.39;58.79;100503.63;4829976;29;8898;-79
2024/01/27 07:50:11;;;;;;;;;5.00;5.00;;;;;2.75;57.46;100495.06;4841946;29;8959;-80
2024/01/27 07:52:40;;;;;;;;;5.60;4.60;;;;;2.81;57.42;100515.13;4852102;29;8891;-79
2024/01/27 07:55:10;;;;;;;;;2.20;1.00;;;;;2.46;57.98;100501.19;4836977;29;8899;-81
2024/01/27 07:57:39;;;;;;;;;2.40;1.40;;;;;2.63;58.16;100510.31;4838041;29;8895;-81
2024/01/27 08:00:09;;;;;;;;;0.80;0.40;;;;;2.63;57.64;100519.81;4837782;29;8891;-82
2024/01/27 08:02:58;;;;;;;;;1.20;1.20;;;;;2.90;56.57;100520.56;4824630;29;8897;-81
2024/01/27 08:05:29;;;;;;;;;7.20;6.80;;;;;2.94;56.51;100509.41;4837183;29;9727;-80
2024/01/27 08:07:58;;;;;;;;;6.00;6.00;;;;;3.00;56.69;100506.97;4833278;29;8885;-80
2024/01/27 08:10:27;;;;;;;;;3.20;3.20;;;;;3.13;55.67;100504.69;4813032;29;9021;-81
2024/01/27 08:12:56;;;;;;;;;3.20;3.20;;;;;3.25;55.06;100511.91;4809976;29;8891;-82
2024/01/27 08:15:25;;;;;;;;;3.20;3.20;;;;;3.42;54.76;100514.94;4806296;29;9040;-81
2024/01/27 08:17:54;;;;;;;;;8.20;6.00;;;;;3.24;54.95;100523.13;4821438;29;9026;-79
2024/01/27 08:20:23;;;;;;;;;2.20;2.20;;;;;3.31;53.63;100533.69;4761724;29;8910;-77
2024/01/27 08:22:54;;;;;;;;;13.80;11.00;;;;;3.63;52.90;100535.34;4803587;29;8933;-80
2024/01/27 08:25:22;;;;;;;;;3.80;2.00;;;;;3.34;52.19;100541.59;4786653;29;8910;-78
2024/01/27 08:27:51;;;;;;;;;4.60;3.00;;;;;3.63;51.11;100537.97;4802781;29;8879;-79
2024/01/27 08:30:20;;;;;;;;;6.00;3.00;;;;;3.52;52.44;100525.56;4800865;29;8894;-78
2024/01/27 08:32:49;;;;;;;;;3.40;2.00;;;;;3.57;50.95;100538.69;4801959;29;8929;-79
2024/01/27 08:35:18;;;;;;;;;6.60;6.20;;;;;3.76;51.21;100534.81;4793333;29;8909;-78
2024/01/27 08:37:48;;;;;;;;;2.60;1.80;;;;;3.61;50.52;100529.25;4822295;29;8892;-79
2024/01/27 08:40:18;;;;;;;;;2.20;2.20;;;;;3.67;49.03;100538.06;4816257;29;8866;-77
2024/01/27 08:42:47;;;;;;;;;5.20;3.00;;;;;3.52;49.51;100528.16;4794403;29;8894;-80
2024/01/27 08:45:16;;;;;;;;;2.20;2.20;;;;;3.26;48.89;100524.03;4801748;29;8902;-82
2024/01/27 08:47:46;;;;;;;;;28.00;23.20;;;;;3.68;50.02;100513.81;4802468;29;8897;-84
2024/01/27 08:50:15;;;;;;;;;45.50;36.25;;;;;3.87;48.60;100517.72;4800878;29;8929;-81
2024/01/27 08:52:45;;;;;;;;;16.40;14.60;;;;;4.28;47.27;100522.94;4802491;29;8925;-81
2024/01/27 08:55:18;;;;;;;;;2.20;2.20;;;;;4.35;46.22;100514.38;4788855;29;8998;-82
2024/01/27 08:57:49;;;;;;;;;2.40;2.40;;;;;4.53;45.87;100520.81;4834448;29;8883;-81
2024/01/27 09:00:19;;;;;;;;;6.40;5.60;;;;;4.38;45.92;100512.69;4843676;29;8935;-82
2024/01/27 09:02:49;;;;;;;;;5.40;5.40;;;;;3.92;45.74;100508.28;4819696;29;8914;-82
2024/01/27 09:05:19;;;;;;;;;11.40;11.40;;;;;4.34;44.83;100520.44;4815763;29;8901;-83
2024/01/27 09:07:48;;;;;;;;;12.80;11.40;;;;;4.50;44.89;100507.72;4785063;29;8912;-80
2024/01/27 09:10:17;;;;;;;;;24.20;22.20;;;;;4.81;44.82;100500.47;4801344;29;8916;-78
2024/01/27 09:12:46;;;;;;;;;3.80;3.80;;;;;4.63;43.96;100520.13;4774015;29;8931;-79
2024/01/27 09:15:17;;;;;;;;;5.00;2.00;;;;;4.43;43.72;100526.66;4784147;29;8943;-81
2024/01/27 09:17:48;;;;;;;;;19.00;13.20;;;;;4.70;43.94;100527.22;4782298;29;8942;-80
2024/01/27 09:20:17;;;;;;;;;4.20;2.00;;;;;4.26;44.82;100561.06;4801446;29;8918;-81
2024/01/27 09:22:47;;;;;;;;;11.40;9.40;;;;;4.60;44.25;100551.31;4771557;29;8882;-80
2024/01/27 09:25:16;;;;;;;;;8.40;7.20;;;;;4.28;43.99;100545.44;4814631;29;8918;-80
2024/01/27 09:27:45;;;;;;;;;11.20;8.80;;;;;4.40;43.89;100542.25;4801359;29;8882;-79
2024/01/27 09:30:16;;;;;;;;;2.00;2.00;;;;;3.74;44.15;100588.50;4779263;29;9072;-78
2024/01/27 09:32:45;;;;;;;;;2.60;2.60;;;;;3.94;44.15;100558.63;4776287;29;8894;-81
2024/01/27 09:35:14;;;;;;;;;5.80;5.80;;;;;4.25;43.78;100543.66;4817529;29;8908;-80
2024/01/27 09:37:46;;;;;;;;;0.40;0.40;;;;;3.74;44.33;100534.75;4824925;29;8904;-80
2024/01/27 09:40:15;;;;;;;;;2.60;2.60;;;;;3.94;44.25;100548.22;4850174;29;8901;-80
2024/01/27 09:42:51;;;;;;;;;3.40;2.00;;;;;4.15;43.99;100529.59;4837205;29;9015;-80
2024/01/27 09:45:23;;;;;;;;;2.00;2.00;;;;;4.36;43.22;100544.78;4818949;29;8918;-80
2024/01/27 09:47:53;;;;;;;;;4.00;3.60;;;;;4.32;43.88;100545.56;4825665;29;8939;-79
2024/01/27 09:50:23;;;;;;;;;4.20;3.80;;;;;3.91;44.06;100571.56;4809435;29;8916;-79
2024/01/27 09:52:52;;;;;;;;;5.00;2.20;;;;;4.17;43.63;100527.03;4827078;29;8884;-81
2024/01/27 09:55:21;;;;;;;;;3.00;3.00;;;;;4.12;42.93;100534.72;4806954;29;8909;-82
2024/01/27 09:57:51;;;;;;;;;5.60;5.60;;;;;4.33;43.08;100533.41;4834584;29;8997;-82
2024/01/27 10:00:23;;;;;;;;;5.20;4.20;;;;;3.82;44.33;100545.34;4832753;29;9092;-80
2024/01/27 10:02:53;;;;;;;;;9.80;6.00;;;;;3.78;44.22;100539.19;4820866;29;9031;-80
2024/01/27 10:05:23;;;;;;;;;8.20;6.00;;;;;3.86;44.32;100547.16;4818568;29;8995;-82
2024/01/27 10:07:52;;;;;;;;;5.20;3.80;;;;;4.08;44.26;100540.72;4818992;29;8927;-80
2024/01/27 10:10:25;;;;;;;;;1.40;1.40;;;;;4.15;43.80;100552.16;4820282;29;8950;-80
2024/01/27 10:12:58;;;;;;;;;11.40;7.00;;;;;4.26;44.88;100571.47;4836995;29;9661;-80
2024/01/27 10:15:28;;;;;;;;;4.00;4.00;;;;;3.96;45.31;100587.28;4821557;29;8904;-80
2024/01/27 10:18:06;;;;;;;;;7.00;6.80;;;;;4.08;45.32;100571.06;4808528;29;8904;-80
2024/01/27 10:20:35;;;;;;;;;3.80;3.80;;;;;3.85;46.25;100575.75;4820955;29;8900;-81
2024/01/27 10:23:14;;;;;;;;;5.40;4.60;;;;;3.88;46.77;100579.28;4804394;29;8908;-79
2024/01/27 10:25:44;;;;;;;;;2.60;2.20;;;;;4.11;46.43;100586.72;4821020;29;8931;-79
2024/01/27 10:28:14;;;;;;;;;6.00;5.00;;;;;3.84;46.19;100595.66;4806434;29;9029;-81
2024/01/27 10:30:45;;;;;;;;;4.00;3.60;;;;;3.60;46.86;100598.56;4821682;29;9056;-77
2024/01/27 10:33:14;;;;;;;;;2.00;2.00;;;;;3.56;46.50;100587.22;4802984;29;9022;-82
2024/01/27 10:35:44;;;;;;;;;2.40;2.40;;;;;3.69;46.49;100587.50;4821559;29;8923;-82
2024/01/27 10:38:15;;;;;;;;;4.20;4.20;;;;;3.63;46.64;100603.84;4838661;29;8951;-80
2024/01/27 10:40:43;;;;;;;;;8.60;5.20;;;;;3.62;46.57;100564.78;4840402;29;8875;-83
2024/01/27 10:43:15;;;;;;;;;4.20;3.00;;;;;3.84;46.20;100566.19;4838448;29;8879;-81
2024/01/27 10:45:46;;;;;;;;;5.60;4.20;;;;;3.75;45.90;100590.25;4849786;29;8889;-80
2024/01/27 10:48:16;;;;;;;;;6.00;3.00;;;;;3.84;45.42;100600.00;4841005;29;8877;-82
2024/01/27 10:50:47;;;;;;;;;15.20;13.00;;;;;3.82;45.37;100589.53;4844213;29;8880;-80
2024/01/27 10:53:24;;;;;;;;;3.80;2.00;;;;;3.97;44.89;100587.28;4839967;29;8865;-81
2024/01/27 10:55:56;;;;;;;;;6.00;3.00;;;;;3.90;45.09;100595.81;4824163;29;8938;-82
2024/01/27 10:58:28;;;;;;;;;7.20;6.80;;;;;4.21;44.94;100586.09;4839267;29;8884;-83
2024/01/27 11:01:00;;;;;;;;;3.80;3.80;;;;;4.16;44.89;100599.00;4828038;29;8881;-82
2024/01/27 11:03:31;;;;;;;;;15.00;14.20;;;;;4.55;43.90;100584.22;4826958;29;8899;-84
2024/01/27 11:06:01;;;;;;;;;3.00;3.00;;;;;4.69;43.37;100587.94;4840954;29;8877;-81
2024/01/27 11:08:31;;;;;;;;;4.80;4.60;;;;;4.84;42.63;100584.75;4856136;29;8961;-86
2024/01/27 11:11:00;;;;;;;;;6.60;6.20;;;;;4.86;43.09;100575.25;4842199;29;8865;-80
2024/01/27 11:13:31;;;;;;;;;6.20;6.20;;;;;5.48;41.87;100579.00;4855735;29;8896;-81
2024/01/27 11:16:02;;;;;;;;;2.60;2.60;;;;;5.21;41.75;100581.94;4856743;29;8905;-84
2024/01/27 11:18:31;;;;;;;;;3.00;3.00;;;;;5.33;41.92;100567.44;4843238;29;8873;-83
2024/01/27 11:21:00;;;;;;;;;3.20;0.40;;;;;5.42;42.31;100566.72;4842940;29;8869;-81
2024/01/27 11:23:34;;;;;;;;;5.60;5.60;;;;;4.87;42.68;100571.81;4841529;29;8877;-85
2024/01/27 11:26:07;;;;;;;;;3.40;3.40;;;;;4.44;42.86;100581.38;4821003;29;8900;-82
2024/01/27 11:28:38;;;;;;;;;2.20;2.20;;;;;4.73;42.52;100581.06;4795598;29;8878;-81
2024/01/27 11:31:09;;;;;;;;;4.20;4.20;;;;;4.74;42.67;100578.50;4852045;29;8869;-82
2024/01/27 11:33:43;;;;;;;;;6.00;6.00;;;;;5.00;42.72;100565.09;4873877;29;8889;-79
2024/01/27 11:36:21;;;;;;;;;0.40;0.20;;;;;4.56;43.97;100583.34;4836790;29;9033;-80
2024/01/27 11:38:51;;;;;;;;;9.20;8.80;;;;;4.89;43.84;100571.84;4821453;29;8900;-82
2024/01/27 11:41:27;;;;;;;;;13.40;10.40;;;;;5.03;42.44;100570.34;4819407;29;9753;-80
2024/01/27 11:43:59;;;;;;;;;12.00;11.00;;;;;5.00;42.93;100538.16;4817459;29;8891;-79
2024/01/27 11:46:30;;;;;;;;;2.00;2.00;;;;;4.61;43.16;100553.06;4817053;29;8903;-79
2024/01/27 11:48:59;;;;;;;;;5.00;5.00;;;;;5.00;42.78;100551.19;4806185;29;8879;-80